KRKS/RKS METAR and TAF weather

Enter ICAO airport designator
Station Type Date Time Source
KRKS METAR 2019/08/24 21:54 UTC NOAA

KRKS 242154Z AUTO 28018G28KT 10SM CLR 28/M02 A3012 RMK AO2 PK WND 29030/2118 SLP115 T02831017


Station Type Date Time Source
KRKS Decoded METAR 2019/08/24 21:54 UTC NOAA

Station name not available
Aug 24, 2019 - 05:54 PM EDT / 2019.08.24 2154 UTC
Wind: from the W (280 degrees) at 21 MPH (18 KT) gusting to 32 MPH (28 KT):0
Visibility: 10 mile(s):0
Sky conditions: clear
Temperature: 82.9 F (28.3 C)
Dew Point: 28.9 F (-1.7 C)
Relative Humidity: 14%
Pressure (altimeter): 30.12 in. Hg (1019 hPa)
ob: KRKS 242154Z AUTO 28018G28KT 10SM CLR 28/M02 A3012 RMK AO2 PK WND 29030/2118 SLP115 T02831017
cycle: 22

Station Type Date Time Source
KRKS TAF 2019/08/24 18:24 UTC NOAA

TAF KRKS 241721Z 2418/2518 27017G24KT P6SM SKC
FM250100 28012G18KT P6SM FEW150 SCT200
FM251600 27017G24KT P6SM SKC

Example: see airport list